Time;durP1;ratioP1;P1;durP2;ratioP2;P2;SDS_P1;SDS_P2;PMS_P1;PMS_P2;Temp;Humidity;BMP_temperature;BMP_pressure;BME280_temperature;BME280_humidity;BME280_pressure;Samples;Min_cycle;Max_cycle;Signal;HPM_P1;HPM_P2
2024/04/18 00:02:08;;;;;;;1.55;1.15;;;8.60;78.10;;;;;;5478308;26;19995;-63
2024/04/18 00:04:34;;;;;;;0.75;0.50;;;8.60;78.10;;;;;;5486018;26;20006;-70
2024/04/18 00:07:01;;;;;;;1.40;0.57;;;8.60;78.20;;;;;;5483343;26;20476;-71
2024/04/18 00:09:27;;;;;;;0.47;0.45;;;8.60;78.20;;;;;;5478641;26;20009;-64
2024/04/18 00:11:53;;;;;;;0.60;0.40;;;8.60;78.30;;;;;;5484623;26;20017;-64
2024/04/18 00:14:19;;;;;;;0.77;0.60;;;8.50;78.20;;;;;;5488789;26;19998;-64
2024/04/18 00:16:45;;;;;;;0.50;0.40;;;8.50;78.20;;;;;;5481370;26;20478;-63
2024/04/18 00:19:11;;;;;;;0.80;0.60;;;8.50;78.30;;;;;;5451075;26;19999;-64
2024/04/18 00:21:37;;;;;;;0.90;0.77;;;8.40;78.40;;;;;;5463816;26;20077;-64
2024/04/18 00:24:03;;;;;;;1.50;0.70;;;8.40;78.40;;;;;;5485562;26;20071;-64
2024/04/18 00:26:29;;;;;;;0.98;0.60;;;8.40;78.40;;;;;;5463231;26;20011;-64
2024/04/18 00:28:55;;;;;;;0.60;0.60;;;8.40;78.40;;;;;;5482300;26;20012;-64
2024/04/18 00:31:21;;;;;;;2.58;0.60;;;8.40;78.50;;;;;;5473001;26;20044;-70
2024/04/18 00:33:47;;;;;;;0.40;0.30;;;8.40;78.50;;;;;;5485733;26;20010;-71
2024/04/18 00:36:13;;;;;;;0.82;0.40;;;8.40;78.50;;;;;;5471244;26;20367;-71
2024/04/18 00:38:40;;;;;;;1.02;0.93;;;8.40;78.60;;;;;;5476125;26;20349;-72
2024/04/18 00:41:07;;;;;;;0.75;0.63;;;8.40;78.70;;;;;;5475840;26;20034;-71
2024/04/18 00:43:33;;;;;;;0.50;0.50;;;8.30;78.70;;;;;;5484783;26;19998;-70
2024/04/18 00:46:00;;;;;;;0.73;0.60;;;8.40;78.80;;;;;;5472994;26;20019;-70
2024/04/18 00:48:28;;;;;;;1.58;0.50;;;8.30;78.80;;;;;;5445259;26;20096;-70
2024/04/18 00:50:58;;;;;;;0.90;0.47;;;8.40;78.90;;;;;;5483941;26;20021;-70
2024/04/18 00:53:25;;;;;;;1.50;0.45;;;8.30;78.80;;;;;;5473099;26;20013;-70
2024/04/18 00:55:52;;;;;;;0.28;0.28;;;8.30;78.80;;;;;;5483525;26;20016;-64
2024/04/18 00:58:18;;;;;;;1.15;0.90;;;8.30;78.80;;;;;;5472285;26;20013;-70
2024/04/18 01:00:48;;;;;;;1.35;0.43;;;8.30;78.80;;;;;;5476189;26;20448;-70
2024/04/18 01:03:14;;;;;;;1.38;0.57;;;8.30;78.80;;;;;;5478439;26;20089;-70
2024/04/18 01:05:40;;;;;;;1.48;0.60;;;8.30;78.70;;;;;;5485392;26;20001;-70
2024/04/18 01:08:06;;;;;;;2.53;0.60;;;8.30;78.70;;;;;;5478891;26;20347;-71
2024/04/18 01:10:32;;;;;;;0.32;0.32;;;8.30;78.70;;;;;;5469055;26;19998;-70
2024/04/18 01:12:59;;;;;;;1.60;0.32;;;8.20;78.70;;;;;;5482536;26;20482;-64
2024/04/18 01:15:27;;;;;;;0.73;0.47;;;8.20;78.80;;;;;;5481409;26;20013;-65
2024/04/18 01:17:53;;;;;;;0.45;0.43;;;8.20;78.80;;;;;;5483111;26;19998;-65
2024/04/18 01:20:21;;;;;;;0.30;0.30;;;8.10;78.70;;;;;;5484961;26;20384;-64
2024/04/18 01:22:47;;;;;;;1.45;0.73;;;8.10;78.70;;;;;;5473617;26;20028;-65
2024/04/18 01:25:13;;;;;;;0.43;0.30;;;8.00;78.70;;;;;;5482812;26;20189;-64
2024/04/18 01:27:39;;;;;;;0.52;0.30;;;8.00;78.70;;;;;;5481012;26;20009;-64
2024/04/18 01:30:06;;;;;;;0.80;0.50;;;8.00;78.70;;;;;;5473544;26;20017;-64
2024/04/18 01:32:36;;;;;;;0.28;0.25;;;7.90;78.60;;;;;;5467755;26;20096;-64
2024/04/18 01:35:03;;;;;;;1.05;0.50;;;7.90;78.60;;;;;;5484020;26;20051;-64
2024/04/18 01:37:31;;;;;;;0.40;0.30;;;7.80;78.70;;;;;;5482064;26;20024;-64
2024/04/18 01:39:57;;;;;;;0.88;0.30;;;7.80;78.70;;;;;;5474890;26;20448;-64
2024/04/18 01:42:23;;;;;;;0.20;0.20;;;7.70;78.70;;;;;;5482162;26;20009;-64
2024/04/18 01:44:49;;;;;;;0.25;0.25;;;7.70;78.70;;;;;;5482239;26;20552;-64
2024/04/18 01:47:15;;;;;;;0.90;0.30;;;7.60;78.70;;;;;;5482985;26;20075;-64
2024/04/18 01:49:41;;;;;;;1.58;0.45;;;7.60;78.70;;;;;;5472480;26;20006;-64
2024/04/18 01:52:07;;;;;;;1.00;0.50;;;7.50;78.70;;;;;;5480281;26;20013;-65
2024/04/18 01:54:33;;;;;;;0.52;0.38;;;7.50;78.80;;;;;;5482511;26;20010;-65
2024/04/18 01:57:00;;;;;;;0.55;0.30;;;7.50;78.80;;;;;;5480351;26;20094;-64
2024/04/18 01:59:26;;;;;;;0.60;0.50;;;7.40;78.80;;;;;;5483235;26;20005;-64
2024/04/18 02:01:55;;;;;;;0.30;0.30;;;7.40;78.80;;;;;;5470461;26;20326;-64
2024/04/18 02:04:21;;;;;;;0.30;0.30;;;7.30;78.70;;;;;;5481437;26;20469;-64
2024/04/18 02:06:51;;;;;;;0.38;0.30;;;7.30;78.80;;;;;;5483457;26;20013;-64
2024/04/18 02:09:18;;;;;;;1.30;0.60;;;7.20;78.80;;;;;;5484781;26;20008;-64
2024/04/18 02:11:44;;;;;;;0.52;0.30;;;7.20;78.90;;;;;;5479820;26;19998;-64
2024/04/18 02:14:14;;;;;;;0.63;0.30;;;7.20;78.90;;;;;;5483852;26;19995;-69
2024/04/18 02:16:40;;;;;;;0.55;0.40;;;7.20;78.90;;;;;;5471339;26;20010;-69
2024/04/18 02:19:06;;;;;;;0.20;0.20;;;7.10;78.90;;;;;;5458167;26;20026;-69
2024/04/18 02:21:32;;;;;;;0.73;0.50;;;7.10;78.90;;;;;;5468045;26;20006;-70
2024/04/18 02:23:58;;;;;;;0.77;0.57;;;7.10;79.00;;;;;;5483813;26;20013;-69
2024/04/18 02:26:24;;;;;;;0.60;0.52;;;7.00;78.90;;;;;;5479024;26;20018;-70
2024/04/18 02:28:50;;;;;;;0.90;0.30;;;7.00;79.00;;;;;;5478797;26;20074;-69
2024/04/18 02:31:16;;;;;;;0.55;0.32;;;7.00;79.00;;;;;;5457351;26;20440;-68
2024/04/18 02:33:41;;;;;;;1.38;0.73;;;6.90;78.90;;;;;;5464595;26;20008;-69
2024/04/18 02:36:07;;;;;;;3.20;0.55;;;6.90;78.90;;;;;;5479989;26;19999;-70
2024/04/18 02:38:34;;;;;;;0.20;0.20;;;6.90;78.90;;;;;;5472942;26;19998;-70
2024/04/18 02:41:07;;;;;;;0.50;0.50;;;6.90;78.90;;;;;;5479824;26;20026;-70
2024/04/18 02:43:33;;;;;;;0.95;0.50;;;6.90;78.90;;;;;;5479106;26;19998;-70
2024/04/18 02:45:59;;;;;;;0.70;0.32;;;6.80;79.00;;;;;;5480557;26;20003;-69
2024/04/18 02:48:25;;;;;;;0.63;0.63;;;6.80;79.00;;;;;;5477903;26;20070;-70
2024/04/18 02:50:51;;;;;;;0.55;0.55;;;6.70;79.00;;;;;;5476262;26;19998;-70
2024/04/18 02:53:17;;;;;;;0.32;0.32;;;6.80;79.10;;;;;;5476583;26;19998;-69
2024/04/18 02:55:43;;;;;;;0.57;0.40;;;6.80;79.10;;;;;;5465186;26;20536;-70
2024/04/18 02:58:09;;;;;;;0.30;0.30;;;6.70;79.00;;;;;;5477053;26;20002;-70
2024/04/18 03:00:35;;;;;;;1.05;0.50;;;6.70;79.00;;;;;;5470250;26;20067;-64
2024/04/18 03:03:02;;;;;;;0.55;0.52;;;6.70;79.00;;;;;;5474018;26;20043;-64
2024/04/18 03:05:28;;;;;;;0.45;0.45;;;6.70;79.00;;;;;;5468806;26;20084;-64
2024/04/18 03:08:00;;;;;;;0.43;0.30;;;6.60;79.00;;;;;;5472472;26;20034;-64
2024/04/18 03:10:26;;;;;;;0.47;0.40;;;6.60;79.10;;;;;;5479873;26;20430;-63
2024/04/18 03:12:55;;;;;;;0.30;0.30;;;6.60;79.10;;;;;;5476477;26;20010;-64
2024/04/18 03:15:21;;;;;;;2.35;0.40;;;6.60;79.10;;;;;;5471652;26;20025;-64
2024/04/18 03:17:54;;;;;;;1.60;0.70;;;6.60;79.10;;;;;;5473739;26;20083;-64
2024/04/18 03:20:22;;;;;;;;;;;6.60;79.10;;;;;;5471950;26;19998;-70
2024/04/18 03:22:49;;;;;;;1.05;0.40;;;6.50;79.10;;;;;;5449630;26;19935;-70
2024/04/18 03:25:15;;;;;;;0.22;0.20;;;6.50;79.10;;;;;;5467299;26;20087;-69
2024/04/18 03:27:41;;;;;;;1.27;0.77;;;6.50;79.10;;;;;;5457264;26;20002;-70
2024/04/18 03:30:07;;;;;;;0.50;0.30;;;6.50;79.10;;;;;;5471047;26;20349;-70
2024/04/18 03:32:35;;;;;;;0.60;0.45;;;6.50;79.10;;;;;;5473164;26;20021;-69
2024/04/18 03:35:01;;;;;;;0.45;0.45;;;6.40;79.10;;;;;;5474413;26;20057;-70
2024/04/18 03:37:27;;;;;;;1.90;0.85;;;6.40;79.10;;;;;;5469919;26;20412;-64
2024/04/18 03:39:53;;;;;;;0.55;0.38;;;6.40;79.10;;;;;;5464078;26;19998;-64
2024/04/18 03:42:19;;;;;;;1.23;0.43;;;6.40;79.10;;;;;;5468600;26;20003;-65
2024/04/18 03:44:45;;;;;;;0.38;0.30;;;6.40;79.00;;;;;;5467400;26;19998;-64
2024/04/18 03:47:11;;;;;;;0.75;0.40;;;6.40;79.00;;;;;;5471810;26;20348;-70
2024/04/18 03:49:37;;;;;;;4.07;0.60;;;6.40;79.00;;;;;;5465358;26;20017;-70
2024/04/18 03:52:03;;;;;;;0.95;0.40;;;6.30;78.90;;;;;;5477886;26;20003;-64
2024/04/18 03:54:29;;;;;;;0.68;0.32;;;6.30;78.90;;;;;;5437834;26;19999;-70
2024/04/18 03:56:55;;;;;;;1.02;0.50;;;6.30;78.90;;;;;;5483753;26;20013;-70
2024/04/18 03:59:21;;;;;;;0.57;0.40;;;6.30;78.90;;;;;;5470843;26;20013;-70
2024/04/18 04:01:47;;;;;;;0.80;0.32;;;6.30;78.90;;;;;;5480805;26;20458;-70
2024/04/18 04:04:13;;;;;;;2.00;0.82;;;6.30;78.90;;;;;;5483093;26;19998;-70
2024/04/18 04:06:39;;;;;;;0.65;0.32;;;6.20;78.90;;;;;;5476664;26;20013;-69
2024/04/18 04:09:05;;;;;;;0.20;0.20;;;6.20;78.90;;;;;;5485284;26;20011;-70
2024/04/18 04:11:31;;;;;;;0.90;0.50;;;6.20;78.90;;;;;;5482155;26;20016;-70
2024/04/18 04:13:57;;;;;;;1.10;0.82;;;6.20;78.90;;;;;;5481989;26;20001;-70
2024/04/18 04:16:23;;;;;;;0.93;0.52;;;6.20;79.00;;;;;;5481603;26;19998;-70
2024/04/18 04:18:54;;;;;;;0.57;0.30;;;6.20;79.00;;;;;;5477886;26;20075;-70
2024/04/18 04:21:21;;;;;;;0.20;0.20;;;6.20;79.00;;;;;;5481837;26;20002;-70
2024/04/18 04:23:47;;;;;;;1.58;0.35;;;6.10;78.90;;;;;;5476017;26;20388;-71
2024/04/18 04:26:13;;;;;;;1.25;0.68;;;6.10;78.80;;;;;;5478297;26;20055;-70
2024/04/18 04:28:39;;;;;;;0.55;0.50;;;6.10;78.90;;;;;;5483248;26;20471;-70
2024/04/18 04:31:05;;;;;;;0.65;0.60;;;6.00;78.80;;;;;;5476318;26;20002;-70
2024/04/18 04:33:34;;;;;;;3.63;1.02;;;6.00;78.90;;;;;;5438813;26;20041;-70
2024/04/18 04:36:00;;;;;;;1.65;0.40;;;6.00;79.00;;;;;;5472980;26;20012;-70
2024/04/18 04:38:26;;;;;;;0.93;0.45;;;6.00;79.00;;;;;;5479653;26;20437;-70
2024/04/18 04:40:52;;;;;;;0.40;0.40;;;6.00;79.10;;;;;;5483398;26;20116;-64
2024/04/18 04:43:18;;;;;;;3.80;0.43;;;6.00;79.00;;;;;;5471649;26;20477;-64
2024/04/18 04:45:44;;;;;;;1.02;0.70;;;5.90;78.90;;;;;;5461065;26;20027;-64
2024/04/18 04:48:10;;;;;;;0.68;0.63;;;6.00;78.90;;;;;;5481704;26;20437;-64
2024/04/18 04:50:40;;;;;;;1.25;0.43;;;5.90;78.90;;;;;;5475353;26;20448;-64
2024/04/18 04:53:07;;;;;;;0.50;0.50;;;5.90;78.90;;;;;;5476291;26;20086;-64
2024/04/18 04:55:33;;;;;;;1.35;0.80;;;5.90;78.90;;;;;;5469885;26;20126;-63
2024/04/18 04:57:58;;;;;;;0.52;0.30;;;5.90;78.90;;;;;;5474888;26;20101;-64
2024/04/18 05:00:24;;;;;;;1.25;0.55;;;5.90;78.90;;;;;;5465785;26;20349;-64
2024/04/18 05:02:50;;;;;;;0.45;0.45;;;5.90;78.90;;;;;;5485184;26;20002;-64
2024/04/18 05:05:15;;;;;;;0.60;0.40;;;5.90;78.90;;;;;;5448599;26;20013;-65
2024/04/18 05:07:41;;;;;;;0.57;0.40;;;5.90;78.90;;;;;;5473270;26;20083;-64
2024/04/18 05:10:07;;;;;;;2.70;0.88;;;5.90;78.90;;;;;;5476010;26;20302;-64
2024/04/18 05:12:32;;;;;;;1.65;0.45;;;5.90;78.90;;;;;;5473241;26;20017;-64
2024/04/18 05:14:58;;;;;;;1.17;0.20;;;5.90;78.90;;;;;;5482113;26;20050;-69
2024/04/18 05:17:24;;;;;;;2.85;0.50;;;6.00;78.90;;;;;;5479985;26;20042;-70
2024/04/18 05:19:50;;;;;;;0.20;0.20;;;6.00;78.90;;;;;;5467774;26;20006;-64
2024/04/18 05:22:15;;;;;;;0.75;0.50;;;6.00;78.80;;;;;;5482401;26;20414;-64
2024/04/18 05:24:41;;;;;;;0.85;0.50;;;6.10;78.90;;;;;;5472312;26;20445;-65
2024/04/18 05:27:07;;;;;;;0.70;0.40;;;6.10;78.80;;;;;;5483996;26;20371;-64
2024/04/18 05:32:17;;;;;;;0.55;0.55;;;6.20;78.70;;;;;;5478458;26;20012;-65
2024/04/18 05:34:42;;;;;;;2.20;0.70;;;6.30;78.70;;;;;;5475437;26;19998;-65
2024/04/18 05:37:08;;;;;;;0.80;0.80;;;6.40;78.70;;;;;;5473222;26;20010;-65
2024/04/18 05:39:34;;;;;;;0.90;0.30;;;6.40;78.60;;;;;;5468658;26;20007;-64
2024/04/18 05:42:00;;;;;;;1.38;0.60;;;6.50;78.60;;;;;;5463200;26;19998;-65
2024/04/18 05:44:25;;;;;;;0.52;0.40;;;6.50;78.60;;;;;;5479857;26;20070;-64
2024/04/18 05:46:51;;;;;;;1.95;1.00;;;6.60;78.70;;;;;;5482586;26;20018;-65
2024/04/18 05:49:20;;;;;;;1.08;0.40;;;6.60;78.70;;;;;;5484116;26;20449;-64
2024/04/18 05:51:46;;;;;;;0.68;0.50;;;6.70;78.70;;;;;;5481479;26;20014;-64
2024/04/18 05:54:12;;;;;;;1.10;0.73;;;6.80;78.60;;;;;;5475483;26;20009;-65
2024/04/18 05:56:38;;;;;;;2.05;0.40;;;6.90;78.60;;;;;;5482292;26;20451;-64
2024/04/18 05:59:04;;;;;;;0.68;0.55;;;6.90;78.60;;;;;;5480306;26;20006;-64
2024/04/18 06:01:29;;;;;;;0.38;0.28;;;7.00;78.70;;;;;;5472451;26;20512;-65
2024/04/18 06:03:55;;;;;;;0.63;0.50;;;7.10;78.70;;;;;;5482279;26;20002;-65
2024/04/18 06:06:21;;;;;;;2.10;0.90;;;7.10;78.70;;;;;;5471601;26;20002;-65
2024/04/18 06:08:46;;;;;;;0.30;0.30;;;7.20;78.70;;;;;;5484867;26;20074;-65
2024/04/18 06:11:15;;;;;;;1.30;0.40;;;7.30;78.60;;;;;;5481866;26;20017;-69
2024/04/18 06:13:41;;;;;;;0.43;0.38;;;7.30;78.50;;;;;;5479127;26;19997;-69
2024/04/18 06:16:07;;;;;;;2.90;0.30;;;7.40;78.40;;;;;;5480086;26;20016;-69
2024/04/18 06:18:32;;;;;;;0.30;0.22;;;7.40;78.40;;;;;;5464828;26;20018;-69
2024/04/18 06:21:00;;;;;;;0.38;0.38;;;7.50;78.40;;;;;;5480066;26;20013;-69
2024/04/18 06:23:26;;;;;;;1.15;0.73;;;7.60;78.30;;;;;;5476687;26;20006;-69
2024/04/18 06:25:52;;;;;;;0.75;0.30;;;7.60;78.20;;;;;;5503002;26;20005;-69
2024/04/18 06:28:17;;;;;;;1.15;0.40;;;7.70;78.30;;;;;;5488603;26;20002;-69
2024/04/18 06:30:43;;;;;;;0.75;0.47;;;7.80;78.30;;;;;;5484668;26;20008;-69
2024/04/18 06:33:09;;;;;;;0.30;0.30;;;7.80;78.20;;;;;;5469100;26;19997;-69
2024/04/18 06:35:34;;;;;;;0.30;0.30;;;7.90;78.10;;;;;;5453566;26;20007;-69
2024/04/18 06:38:00;;;;;;;1.58;0.57;;;8.10;78.20;;;;;;5497315;26;20142;-69
2024/04/18 06:40:26;;;;;;;0.93;0.63;;;8.20;78.00;;;;;;5477039;26;20397;-69
2024/04/18 06:42:52;;;;;;;3.38;0.63;;;8.20;77.80;;;;;;5486070;26;20002;-69
2024/04/18 06:45:21;;;;;;;0.68;0.50;;;8.30;77.80;;;;;;5476895;26;20014;-69
2024/04/18 06:47:48;;;;;;;1.65;0.28;;;8.40;77.70;;;;;;5473998;26;20010;-69
2024/04/18 06:50:16;;;;;;;0.40;0.40;;;8.50;77.70;;;;;;5468125;26;20794;-69
2024/04/18 06:52:41;;;;;;;1.13;0.85;;;8.60;77.60;;;;;;5470769;26;20372;-69
2024/04/18 06:55:07;;;;;;;2.58;0.20;;;8.60;77.40;;;;;;5478665;26;20002;-69
2024/04/18 06:57:33;;;;;;;0.65;0.30;;;8.70;77.40;;;;;;5468918;26;20017;-69
2024/04/18 06:59:58;;;;;;;0.82;0.40;;;8.80;77.30;;;;;;5481049;26;20010;-69
2024/04/18 07:02:24;;;;;;;1.58;0.95;;;8.90;77.10;;;;;;5471006;26;20007;-65
2024/04/18 07:04:49;;;;;;;0.65;0.63;;;9.00;76.90;;;;;;5474176;26;20002;-69
2024/04/18 07:07:15;;;;;;;0.65;0.32;;;9.00;76.90;;;;;;5476443;26;20495;-69
2024/04/18 07:09:41;;;;;;;0.60;0.30;;;9.10;76.70;;;;;;5479954;26;20048;-65
2024/04/18 07:12:08;;;;;;;0.77;0.50;;;9.20;76.70;;;;;;5478870;26;20002;-66
2024/04/18 07:14:34;;;;;;;0.40;0.30;;;9.20;76.50;;;;;;5482930;26;20006;-65
2024/04/18 07:16:59;;;;;;;0.20;0.20;;;9.30;76.50;;;;;;5464691;26;20054;-66
2024/04/18 07:19:25;;;;;;;0.40;0.40;;;9.40;76.40;;;;;;5483592;26;19998;-67
2024/04/18 07:21:50;;;;;;;0.47;0.47;;;9.50;76.30;;;;;;5480880;26;20002;-64
2024/04/18 07:24:16;;;;;;;9.23;0.75;;;9.50;76.30;;;;;;5449321;26;20050;-65
2024/04/18 07:26:42;;;;;;;1.05;0.70;;;9.60;76.30;;;;;;5450671;26;20012;-65
2024/04/18 07:29:08;;;;;;;0.40;0.25;;;9.70;76.10;;;;;;5437424;26;20438;-65
2024/04/18 07:31:34;;;;;;;0.35;0.30;;;9.80;76.00;;;;;;5461454;26;20078;-65
2024/04/18 07:33:59;;;;;;;1.20;1.10;;;9.90;75.90;;;;;;5470705;26;20011;-65
2024/04/18 07:36:25;;;;;;;0.93;0.50;;;10.00;75.70;;;;;;5459880;26;20130;-65
2024/04/18 07:38:51;;;;;;;0.60;0.50;;;10.10;75.60;;;;;;5470485;26;20007;-65
2024/04/18 07:41:17;;;;;;;0.90;0.30;;;10.10;75.50;;;;;;5468187;26;20040;-65
2024/04/18 07:43:43;;;;;;;0.90;0.30;;;10.10;75.30;;;;;;5473345;26;20309;-65
2024/04/18 07:46:12;;;;;;;0.40;0.40;;;10.20;75.30;;;;;;5464813;26;19999;-65
2024/04/18 07:48:41;;;;;;;0.60;0.40;;;10.20;75.00;;;;;;5467156;26;20013;-64
2024/04/18 07:51:07;;;;;;;0.30;0.30;;;10.20;74.90;;;;;;5448817;26;19998;-65
2024/04/18 07:53:32;;;;;;;0.47;0.30;;;10.20;74.80;;;;;;5473804;26;20079;-65
2024/04/18 07:55:58;;;;;;;2.30;1.05;;;10.10;74.90;;;;;;5470900;26;20013;-65
2024/04/18 07:58:26;;;;;;;0.40;0.30;;;10.00;74.90;;;;;;5484953;26;20071;-65
2024/04/18 08:00:52;;;;;;;0.30;0.30;;;9.90;75.10;;;;;;5453234;26;20009;-65
2024/04/18 08:03:17;;;;;;;0.80;0.40;;;9.80;75.20;;;;;;5475849;26;19998;-65
2024/04/18 08:05:44;;;;;;;0.93;0.85;;;9.80;75.30;;;;;;5473867;26;20020;-65
2024/04/18 08:08:11;;;;;;;0.88;0.65;;;9.80;75.40;;;;;;5477776;26;20008;-65
2024/04/18 08:10:37;;;;;;;0.22;0.17;;;9.80;75.40;;;;;;5443401;26;20013;-70
2024/04/18 08:13:03;;;;;;;0.52;0.50;;;9.90;75.40;;;;;;5436139;26;20120;-65
2024/04/18 08:15:29;;;;;;;0.98;0.65;;;9.90;75.20;;;;;;5481221;26;20002;-65
2024/04/18 08:17:54;;;;;;;0.13;0.10;;;10.00;75.00;;;;;;5482762;26;20002;-65
2024/04/18 08:20:20;;;;;;;0.40;0.40;;;10.10;74.90;;;;;;5484841;26;20102;-65
2024/04/18 08:22:46;;;;;;;0.45;0.45;;;10.10;74.70;;;;;;5452346;26;20447;-65
2024/04/18 08:25:11;;;;;;;0.90;0.30;;;10.20;74.60;;;;;;5482708;26;19998;-70
2024/04/18 08:27:37;;;;;;;0.93;0.88;;;10.50;74.50;;;;;;5482811;26;19998;-70
2024/04/18 08:30:03;;;;;;;0.80;0.25;;;10.70;74.20;;;;;;5472444;26;20439;-70
2024/04/18 08:32:29;;;;;;;0.80;0.60;;;10.90;73.80;;;;;;5472753;26;20017;-70
2024/04/18 08:34:54;;;;;;;1.48;0.28;;;11.10;73.40;;;;;;5482914;26;20010;-70
2024/04/18 08:37:20;;;;;;;0.45;0.25;;;11.30;72.80;;;;;;5484351;26;20452;-70
2024/04/18 08:39:45;;;;;;;0.28;0.20;;;11.40;71.70;;;;;;5482911;26;20006;-70
2024/04/18 08:42:14;;;;;;;0.40;0.20;;;11.40;71.00;;;;;;5475278;26;20010;-70
2024/04/18 08:44:41;;;;;;;2.80;0.20;;;11.50;70.90;;;;;;5467296;26;20107;-70
2024/04/18 08:47:08;;;;;;;0.32;0.30;;;11.50;70.40;;;;;;5476181;26;20453;-70
2024/04/18 08:49:37;;;;;;;0.90;0.20;;;11.50;70.40;;;;;;5491099;26;20002;-70
2024/04/18 08:52:06;;;;;;;1.15;0.75;;;11.40;70.70;;;;;;5483358;26;20370;-70
2024/04/18 08:54:32;;;;;;;1.25;0.20;;;11.40;70.70;;;;;;5477158;26;19998;-70
2024/04/18 08:57:00;;;;;;;0.30;0.30;;;11.50;70.80;;;;;;5477899;26;20013;-70
2024/04/18 08:59:27;;;;;;;0.10;0.10;;;11.70;70.50;;;;;;5480808;26;20433;-70
2024/04/18 09:01:54;;;;;;;1.52;0.63;;;11.80;68.70;;;;;;5474394;26;19998;-70
2024/04/18 09:04:19;;;;;;;0.30;0.22;;;12.00;67.60;;;;;;5484843;26;20465;-70
2024/04/18 09:06:45;;;;;;;2.42;0.30;;;12.00;67.40;;;;;;5473628;26;19995;-70
2024/04/18 09:09:16;;;;;;;2.72;0.32;;;12.10;67.70;;;;;;5477705;26;20029;-70
2024/04/18 09:11:45;;;;;;;0.20;0.20;;;12.30;67.80;;;;;;5477468;26;20010;-70
2024/04/18 09:14:11;;;;;;;0.43;0.25;;;12.60;67.50;;;;;;5498159;26;19997;-70
2024/04/18 09:16:38;;;;;;;0.30;0.30;;;12.80;67.30;;;;;;5477734;26;20924;-70
2024/04/18 09:19:04;;;;;;;0.52;0.45;;;13.00;65.80;;;;;;5479272;26;20009;-70
2024/04/18 09:21:30;;;;;;;0.20;0.20;;;12.90;63.00;;;;;;5468255;26;20002;-69
2024/04/18 09:23:57;;;;;;;2.65;0.52;;;12.60;63.20;;;;;;5477905;26;20053;-69
2024/04/18 09:26:32;;;;;;;0.35;0.20;;;12.40;63.90;;;;;;5475948;26;20005;-69
2024/04/18 09:28:58;;;;;;;0.20;0.20;;;12.20;63.70;;;;;;5487062;26;20456;-69
2024/04/18 09:31:28;;;;;;;0.20;0.17;;;12.30;63.80;;;;;;5479373;26;20414;-65
2024/04/18 09:33:53;;;;;;;0.13;0.10;;;12.40;63.40;;;;;;5468132;26;20422;-65
2024/04/18 09:36:20;;;;;;;0.30;0.20;;;12.60;62.90;;;;;;5470028;26;20018;-65
2024/04/18 09:38:47;;;;;;;2.05;0.47;;;12.70;62.30;;;;;;5478760;26;20048;-65
2024/04/18 09:41:20;;;;;;;0.45;0.30;;;12.70;60.90;;;;;;5485127;26;20344;-66
2024/04/18 09:44:01;;;;;;;0.20;0.20;;;12.60;60.90;;;;;;5480142;26;20535;-70
2024/04/18 09:46:28;;;;;;;0.40;0.20;;;12.50;60.60;;;;;;5483877;26;19999;-69
2024/04/18 09:48:55;;;;;;;0.45;0.45;;;12.50;60.90;;;;;;5482705;26;19998;-69
2024/04/18 09:51:22;;;;;;;0.20;0.20;;;12.80;61.40;;;;;;5471318;26;20009;-70
2024/04/18 09:53:49;;;;;;;8.38;0.40;;;13.10;61.40;;;;;;5477177;26;19998;-65
2024/04/18 09:56:17;;;;;;;0.40;0.20;;;13.50;60.50;;;;;;5483611;26;20409;-65
2024/04/18 09:58:44;;;;;;;0.13;0.13;;;13.90;60.00;;;;;;5473440;26;20623;-65
2024/04/18 10:01:11;;;;;;;0.40;0.40;;;13.90;58.60;;;;;;5496385;26;20074;-65
2024/04/18 10:03:38;;;;;;;0.40;0.40;;;13.80;58.80;;;;;;5493983;26;20457;-64
2024/04/18 10:06:08;;;;;;;0.98;0.40;;;13.60;59.00;;;;;;5471382;26;20417;-65
2024/04/18 10:08:39;;;;;;;0.43;0.30;;;13.30;60.20;;;;;;5466201;26;20542;-65
2024/04/18 10:11:05;;;;;;;0.35;0.32;;;13.10;61.40;;;;;;5476745;26;20038;-65
2024/04/18 10:13:31;;;;;;;0.35;0.35;;;12.90;62.20;;;;;;5461571;26;20001;-65
2024/04/18 10:16:10;;;;;;;0.50;0.30;;;12.80;62.70;;;;;;5473510;26;20490;-65
2024/04/18 10:18:37;;;;;;;0.28;0.28;;;12.70;62.70;;;;;;5472576;26;20337;-64
2024/04/18 10:21:13;;;;;;;0.43;0.20;;;12.90;62.30;;;;;;5474898;26;20004;-66
2024/04/18 10:23:47;;;;;;;0.28;0.28;;;13.20;62.30;;;;;;5482542;26;20032;-70
2024/04/18 10:26:14;;;;;;;0.20;0.20;;;13.60;62.20;;;;;;5496133;26;20013;-65
2024/04/18 10:28:40;;;;;;;0.55;0.20;;;14.00;61.80;;;;;;5479810;26;19998;-70
2024/04/18 10:31:06;;;;;;;4.18;0.50;;;14.40;61.20;;;;;;5493311;26;19998;-64
2024/04/18 10:33:35;;;;;;;1.17;0.30;;;14.40;59.90;;;;;;5446407;26;20014;-70
2024/04/18 10:36:01;;;;;;;1.65;0.45;;;14.40;61.20;;;;;;5485902;26;20020;-65
2024/04/18 10:38:27;;;;;;;0.30;0.30;;;14.60;60.80;;;;;;5470618;26;19998;-64
2024/04/18 10:40:59;;;;;;;0.32;0.20;;;14.90;60.30;;;;;;5481271;26;19998;-65
2024/04/18 10:43:27;;;;;;;0.80;0.17;;;15.20;59.80;;;;;;5475573;26;20070;-65
2024/04/18 10:45:56;;;;;;;0.82;0.28;;;15.40;58.80;;;;;;5475032;26;20014;-65
2024/04/18 10:48:22;;;;;;;3.25;0.68;;;15.60;58.40;;;;;;5476271;26;20009;-69
2024/04/18 10:50:50;;;;;;;0.43;0.43;;;15.50;57.50;;;;;;5468690;26;20006;-65
2024/04/18 10:53:15;;;;;;;0.20;0.20;;;15.20;56.90;;;;;;5464551;26;20014;-64
2024/04/18 10:55:41;;;;;;;1.45;0.60;;;14.70;57.30;;;;;;5472032;26;20015;-65
2024/04/18 10:58:10;;;;;;;1.48;0.28;;;14.40;58.00;;;;;;5473089;26;20179;-64
2024/04/18 11:00:39;;;;;;;0.40;0.40;;;14.10;58.00;;;;;;5477438;26;20076;-64
2024/04/18 11:03:05;;;;;;;0.20;0.20;;;14.00;58.10;;;;;;5472834;26;20021;-64
2024/04/18 11:05:31;;;;;;;0.13;0.10;;;14.10;58.00;;;;;;5438801;26;19999;-65
2024/04/18 11:07:56;;;;;;;0.30;0.30;;;14.40;57.40;;;;;;5469159;26;20011;-65
2024/04/18 11:10:24;;;;;;;0.77;0.20;;;14.70;56.20;;;;;;5475083;26;20338;-69
2024/04/18 11:12:50;;;;;;;0.30;0.30;;;14.60;56.20;;;;;;5479315;26;20035;-69
2024/04/18 11:15:16;;;;;;;0.90;0.30;;;14.40;55.70;;;;;;5476510;26;20002;-69
2024/04/18 11:17:42;;;;;;;1.73;0.30;;;14.30;56.20;;;;;;5479432;26;20002;-69
2024/04/18 11:20:11;;;;;;;0.43;0.20;;;14.20;56.30;;;;;;5446200;26;20026;-64
2024/04/18 11:22:42;;;;;;;0.40;0.40;;;14.10;57.10;;;;;;5482329;26;20030;-64
2024/04/18 11:25:09;;;;;;;2.35;0.20;;;14.00;57.50;;;;;;5466680;26;20013;-65
2024/04/18 11:27:35;;;;;;;1.10;0.30;;;14.00;58.00;;;;;;5481350;26;20718;-65
2024/04/18 11:30:04;;;;;;;0.22;0.20;;;13.90;58.00;;;;;;5480507;26;20034;-69
2024/04/18 11:32:29;;;;;;;0.85;0.30;;;13.80;58.30;;;;;;5478071;26;20022;-69
2024/04/18 11:34:55;;;;;;;0.30;0.30;;;13.80;58.70;;;;;;5483178;26;20437;-69
2024/04/18 11:37:21;;;;;;;0.47;0.30;;;13.90;58.90;;;;;;5476293;26;20471;-70
2024/04/18 11:39:46;;;;;;;0.22;0.22;;;14.00;59.00;;;;;;5469942;26;20021;-71
2024/04/18 11:42:12;;;;;;;1.30;0.20;;;14.30;58.40;;;;;;5469653;26;20003;-71
2024/04/18 11:44:38;;;;;;;0.30;0.30;;;14.40;57.20;;;;;;5476089;26;20006;-71
2024/04/18 11:47:04;;;;;;;0.35;0.20;;;14.70;55.70;;;;;;5482116;26;20024;-71
2024/04/18 11:49:30;;;;;;;0.15;0.15;;;15.00;54.40;;;;;;5471957;26;20002;-71
2024/04/18 11:51:56;;;;;;;0.20;0.20;;;15.30;54.40;;;;;;5471239;26;20014;-71
2024/04/18 11:54:23;;;;;;;0.93;0.20;;;15.70;54.30;;;;;;5476881;26;20034;-71
2024/04/18 11:56:48;;;;;;;0.30;0.15;;;16.00;54.10;;;;;;5484996;26;20014;-71
2024/04/18 11:59:16;;;;;;;0.25;0.25;;;16.40;52.80;;;;;;5486003;26;20013;-71
2024/04/18 12:01:42;;;;;;;0.88;0.30;;;16.60;52.80;;;;;;5469144;26;20006;-71
2024/04/18 12:04:10;;;;;;;0.20;0.20;;;16.80;51.40;;;;;;5481236;26;20461;-71
2024/04/18 12:06:36;;;;;;;0.98;0.50;;;16.80;50.70;;;;;;5486217;26;20008;-71
2024/04/18 12:09:03;;;;;;;0.35;0.35;;;16.60;51.10;;;;;;5475430;26;20002;-71
2024/04/18 12:11:29;;;;;;;0.10;0.10;;;16.50;51.60;;;;;;5482137;26;19998;-71
2024/04/18 12:13:55;;;;;;;0.20;0.20;;;16.30;51.20;;;;;;5480902;26;20002;-70
2024/04/18 12:16:21;;;;;;;0.30;0.30;;;16.00;51.70;;;;;;5476721;26;20002;-71
2024/04/18 12:18:47;;;;;;;0.30;0.30;;;15.90;51.90;;;;;;5478011;26;20459;-66
2024/04/18 12:21:13;;;;;;;0.50;0.40;;;15.80;51.60;;;;;;5474219;26;20527;-66
2024/04/18 12:23:42;;;;;;;1.08;0.85;;;15.90;50.80;;;;;;5482373;26;20070;-66
2024/04/18 12:26:12;;;;;;;0.30;0.30;;;16.20;50.20;;;;;;5483262;26;20010;-72
2024/04/18 12:28:38;;;;;;;0.50;0.50;;;16.50;48.60;;;;;;5484099;26;20010;-72
2024/04/18 12:31:04;;;;;;;0.52;0.30;;;16.60;47.10;;;;;;5472127;26;20080;-69
2024/04/18 12:33:29;;;;;;;0.52;0.22;;;16.70;46.90;;;;;;5480530;26;20017;-65
2024/04/18 12:35:55;;;;;;;0.20;0.20;;;16.70;45.80;;;;;;5483827;26;20009;-68
2024/04/18 12:38:21;;;;;;;0.50;0.10;;;16.60;46.50;;;;;;5477796;26;20002;-70
2024/04/18 12:40:47;;;;;;;0.20;0.20;;;16.80;47.20;;;;;;5483304;26;20038;-70
2024/04/18 12:43:16;;;;;;;1.13;0.22;;;17.10;47.50;;;;;;5483075;26;20470;-64
2024/04/18 12:45:41;;;;;;;0.20;0.20;;;17.40;46.50;;;;;;5472656;26;20027;-64
2024/04/18 12:48:07;;;;;;;1.10;0.40;;;17.50;46.10;;;;;;5484720;26;20049;-69
2024/04/18 12:50:33;;;;;;;0.43;0.20;;;17.30;45.50;;;;;;5479317;26;20002;-68
2024/04/18 12:52:58;;;;;;;1.10;0.30;;;17.00;45.20;;;;;;5465691;26;20009;-68